Latest Coastal Weather Observations for Cape Flattery

IDQ60701

Issued at 4:31 am EST Thursday 13 December 2018 (issued every 10 minutes, with the page automatically refreshed every 10 minutes)

About coastal observations | Map of coastal stations | Coastal observations for QLD | Marine services | Other Formats
Station Details ID: 031213 Name: CAPE FLATTERY Lat: -14.97 Lon: 145.31 Height: 18.5 m
Data from the previous 72 hours. | See also: Recent months at Cape Flattery
Date/Time
EST
Wind Sea
Height
m
Swell Vis
km
Cloud Weather Temp
°C
Press
hPa
Rain since
9am
mm
Dir  Spd
kts
Gust
kts
Height
m
Period
s
Dir
13/04:30am NNW 2 4 - - - - - - - 27.4 1007.4 0.0
13/04:00am N 5 7 - - - - - - - 27.7 1007.1 0.0
13/03:30am N 4 7 - - - - - - - 27.5 1007.0 0.0
13/03:00am NNE 5 7 - - - - - - - 27.5 1006.7 0.0
13/02:30am NNE 6 9 - - - - - - - 27.6 1006.7 0.0
13/02:00am NNE 7 9 - - - - - - - 27.7 1006.9 0.0
13/01:30am NNE 5 8 - - - - - - - 27.5 1007.1 0.0
13/01:00am NNE 4 7 - - - - - - - 27.4 1007.4 0.0
13/12:30am NE 4 5 - - - - - - - 26.4 1007.7 0.0
13/12:00am ENE 4 5 - - - - - - - 25.9 1008.3 0.0
 
Date/Time
EST
Wind Sea
Height
m
Swell Vis
km
Cloud Weather Temp
°C
Press
hPa
Rain since
9am
mm
Dir  Spd
kts
Gust
kts
Height
m
Period
s
Dir
12/11:30pm CALM 0 3 - - - - - - - 25.7 1008.7 0.0
12/11:00pm CALM 0 0 - - - - - - - 25.9 1008.9 0.0
12/10:30pm NE 4 4 - - - - - - - 26.3 1009.0 0.0
12/10:00pm ENE 4 4 - - - - - - - 26.3 1009.2 0.0
12/09:30pm NE 4 5 - - - - - - - 26.4 1009.0 0.0
12/09:00pm ENE 5 5 - - - - - - - 26.4 1008.8 0.0
12/08:30pm ENE 3 4 - - - - - - - 26.6 1008.7 0.0
12/08:00pm ESE 4 5 - - - - - - - 26.6 1008.4 0.0
12/07:30pm ESE 2 4 - - - - - - - 26.9 1008.2 0.0
12/07:00pm ENE 1 4 - - - - - - - 27.5 1008.1 0.0
12/06:30pm CALM 0 0 - - - - - - - 28.3 1007.6 0.0
12/06:00pm NE 3 4 - - - - - - - 28.8 1007.6 0.0
12/05:30pm NE 4 6 - - - - - - - 29.2 1007.4 0.0
12/05:00pm NNE 6 8 - - - - - - - 29.6 1007.3 0.0
12/04:30pm NNE 6 9 - - - - - - - 31.0 1007.3 0.0
12/04:00pm NE 6 8 - - - - - - - 30.7 1007.2 0.0
12/03:30pm NE 7 9 - - - - - - - 30.7 1007.2 0.0
12/03:00pm NNE 8 11 - - - - - - - 30.8 1007.3 0.0
12/02:30pm NE 7 10 - - - - - - - 31.4 1007.6 0.0
12/02:00pm NE 7 10 - - - - - - - 32.1 1007.9 0.0
12/01:30pm NNE 9 13 - - - - - - - 30.8 1008.1 0.0
12/01:00pm NNE 10 13 - - - - - - - 30.6 1008.7 0.0
12/12:30pm ENE 7 12 - - - - - - - 31.6 1009.0 0.0
12/12:00pm E 9 14 - - - - - - - 32.3 1009.1 0.0
12/11:30am E 9 13 - - - - - - - 32.8 1009.4 0.0
12/11:00am ENE 8 13 - - - - - - - 31.6 1009.8 0.0
12/10:30am E 9 13 - - - - - - - 31.5 1009.9 0.0
12/10:00am ESE 8 13 - - - - - - - 31.7 1010.1 0.0
12/09:30am E 8 11 - - - - - - - 31.3 1010.2 0.0
12/09:00am E 8 12 - - - - - - - 31.1 1010.2 0.2
12/08:30am E 8 11 - - - - - - - 29.8 1010.2 0.2
12/08:00am E 9 12 - - - - - - - 29.6 1009.8 0.2
12/07:30am E 9 12 - - - - - - - 29.4 1009.4 0.2
12/07:00am E 8 11 - - - - - - - 28.6 1008.9 0.2
12/06:30am E 7 11 - - - - - - - 28.0 1008.4 0.2
12/06:00am ESE 6 7 - - - - - - - 26.9 1008.1 0.2
12/05:30am E 5 6 - - - - - - - 26.5 1007.9 0.2
12/05:00am E 5 7 - - - - - - - 26.6 1007.3 0.2
12/04:30am E 6 7 - - - - - - - 26.7 1007.3 0.2
12/04:00am ESE 5 7 - - - - - - - 27.0 1007.3 0.2
12/03:30am ESE 5 6 - - - - - - - 26.7 1007.2 0.2
12/03:00am E 5 6 - - - - - - - 26.9 1007.6 0.2
12/02:30am ESE 6 8 - - - - - - - 26.9 1007.7 0.2
12/02:00am ESE 6 8 - - - - - - - 27.0 1008.1 0.2
12/01:30am ESE 6 8 - - - - - - - 27.2 1008.3 0.2
12/01:00am ESE 7 10 - - - - - - - 27.4 1008.4 0.2
12/12:30am ESE 7 10 - - - - - - - 27.5 1008.8 0.2
12/12:00am ESE 5 8 - - - - - - - 27.4 1009.0 0.2
 
Date/Time
EST
Wind Sea
Height
m
Swell Vis
km
Cloud Weather Temp
°C
Press
hPa
Rain since
9am
mm
Dir  Spd
kts
Gust
kts
Height
m
Period
s
Dir
11/11:30pm ESE 6 8 - - - - - - - 27.3 1009.1 0.2
11/11:00pm ESE 5 7 - - - - - - - 27.0 1009.4 0.2
11/10:30pm ESE 5 6 - - - - - - - 26.8 1009.7 0.2
11/10:00pm ESE 5 7 - - - - - - - 26.8 1009.6 0.2
11/09:30pm ESE 5 7 - - - - - - - 26.7 1009.3 0.2
11/09:00pm ESE 6 7 - - - - - - - 26.8 1009.3 0.2
11/08:30pm ESE 5 6 - - - - - - - 27.0 1009.4 0.2
11/08:00pm ESE 6 8 - - - - - - - 27.0 1009.2 0.2
11/07:30pm ESE 5 7 - - - - - - - 27.2 1009.0 0.2
11/07:00pm ESE 5 7 - - - - - - - 27.4 1008.8 0.2
11/06:30pm ESE 6 8 - - - - - - - 27.8 1008.6 0.2
11/06:00pm ESE 7 10 - - - - - - - 28.3 1008.1 0.2
11/05:30pm SE 8 11 - - - - - - - 28.7 1007.8 0.2
11/05:00pm ESE 8 10 - - - - - - - 29.0 1007.5 0.2
11/04:30pm E 7 9 - - - - - - - 29.4 1007.4 0.2
11/04:00pm E 9 14 - - - - - - - 30.6 1007.0 0.2
11/03:30pm E 9 12 - - - - - - - 31.4 1006.9 0.2
11/03:00pm E 9 13 - - - - - - - 31.3 1007.2 0.2
11/02:30pm NE 7 13 - - - - - - - 30.9 1007.5 0.2
11/02:00pm NE 8 14 - - - - - - - 30.7 1007.5 0.2
11/01:30pm ENE 9 13 - - - - - - - 32.0 1007.7 0.2
11/01:00pm NE 9 14 - - - - - - - 32.2 1008.0 0.2
11/12:30pm NE 10 14 - - - - - - - 31.8 1008.5 0.2
11/12:00pm NE 10 15 - - - - - - - 31.8 1008.7 0.2
11/11:30am ENE 10 14 - - - - - - - 31.6 1008.9 0.2
11/11:00am E 11 16 - - - - - - - 31.1 1009.2 0.2
11/10:30am NE 9 13 - - - - - - - 31.1 1009.2 0.2
11/10:00am ENE 11 15 - - - - - - - 30.7 1009.4 0.2
11/09:30am ENE 12 18 - - - - - - - 29.4 1009.5 0.2
11/09:00am E 10 16 - - - - - - - 30.2 1009.4 19.2
11/08:30am E 8 12 - - - - - - - 29.5 1009.5 19.2
11/08:00am ENE 7 12 - - - - - - - 28.4 1009.3 19.2
11/07:30am ENE 8 11 - - - - - - - 28.0 1009.1 19.2
11/07:00am SE 1 5 - - - - - - - 27.1 1008.7 18.4
11/06:30am ESE 6 11 - - - - - - - 25.8 1008.2 17.8
11/06:00am NE 6 8 - - - - - - - 25.0 1007.6 17.8
11/05:30am E 5 7 - - - - - - - 25.3 1007.3 17.8
11/05:00am ESE 1 6 - - - - - - - 25.1 1007.1 17.8
11/04:30am CALM 0 0 - - - - - - - 25.3 1006.9 17.8
11/04:00am ESE 4 5 - - - - - - - 24.8 1006.9 17.8
11/03:30am E 4 5 - - - - - - - 24.3 1006.8 17.8
11/03:00am E 4 4 - - - - - - - 23.9 1006.7 17.8
11/02:30am CALM 0 0 - - - - - - - 24.0 1006.4 17.8
11/02:00am E 1 4 - - - - - - - 23.9 1006.4 17.8
11/01:30am CALM 0 0 - - - - - - - 23.8 1006.7 17.8
11/01:00am CALM 0 0 - - - - - - - 24.0 1007.0 17.8
11/12:30am E 5 6 - - - - - - - 24.5 1007.1 17.8
11/12:00am E 4 5 - - - - - - - 24.4 1007.6 17.8
 
Date/Time
EST
Wind Sea
Height
m
Swell Vis
km
Cloud Weather Temp
°C
Press
hPa
Rain since
9am
mm
Dir  Spd
kts
Gust
kts
Height
m
Period
s
Dir
10/11:30pm CALM 0 0 - - - - - - - 24.5 1008.1 17.8
10/11:00pm SSE 3 6 - - - - - - - 24.7 1008.0 17.8
10/10:30pm SW 4 5 - - - - - - - 25.1 1008.0 17.8
10/10:00pm N 5 7 - - - - - - - 26.2 1007.9 17.8
10/09:30pm NNE 7 11 - - - - - - - 26.2 1007.8 17.8
10/09:00pm NE 10 16 - - - - - - Rain 24.4 1007.7 17.8
10/08:43pm N 14 25 - - - - - - - 25.2 1007.7 13.8
10/08:30pm NNW 12 21 - - - - - - - 25.6 1007.5 3.8
10/08:00pm NE 11 15 - - - - - - - 27.7 1006.3 0.0
10/07:30pm NE 8 14 - - - - - - - 27.7 1006.1 0.0
10/07:00pm NE 9 17 - - - - - - - 27.5 1005.4 0.0
10/06:30pm NE 10 14 - - - - - - - 27.4 1005.0 0.0
10/06:00pm NE 9 13 - - - - - - - 27.6 1004.8 0.0
10/05:30pm NE 10 15 - - - - - - - 27.9 1004.5 0.0
10/05:00pm ENE 11 15 - - - - - - - 28.5 1004.2 0.0
10/04:30pm ENE 11 16 - - - - - - - 29.3 1004.0 0.0
10/04:00pm NE 10 14 - - - - - - - 30.5 1003.3 0.0
10/03:30pm NE 12 16 - - - - - - - 31.5 1003.2 0.0
10/03:00pm NE 10 16 - - - - - - - 31.5 1003.4 0.0
10/02:30pm NE 10 15 - - - - - - - 31.6 1003.6 0.0
10/02:00pm NE 11 14 - - - - - - - 31.5 1003.8 0.0
10/01:30pm NE 10 14 - - - - - - - 32.3 1004.1 0.0
10/01:00pm NNE 11 15 - - - - - - - 31.5 1004.5 0.0
10/12:30pm NNE 10 13 - - - - - - - 30.4 1004.7 0.0
10/12:00pm NNE 9 13 - - - - - - - 32.0 1004.7 0.0
10/11:30am NNE 9 12 - - - - - - - 32.3 1004.9 0.0
10/11:00am N 7 9 - - - - - - - 31.3 1004.9 0.0
10/10:30am N 11 13 - - - - - - - 30.7 1004.9 0.0
10/10:00am N 9 11 - - - - - - - 30.4 1004.9 0.0
10/09:30am N 7 11 - - - - - - - 30.6 1004.8 0.0
10/09:00am NNW 7 9 - - - - - - - 30.9 1004.7 6.8
10/08:30am NW 8 12 - - - - - - - 29.8 1004.5 6.8
10/08:00am NW 7 10 - - - - - - - 29.0 1004.5 6.8
10/07:30am NW 9 12 - - - - - - - 26.9 1003.9 6.6
10/07:00am NW 11 14 - - - - - - - 26.9 1003.2 6.6
10/06:30am NW 11 15 - - - - - - - 26.0 1002.8 6.6
10/06:00am NW 12 16 - - - - - - - 25.8 1002.4 6.6
10/05:30am NW 13 17 - - - - - - - 25.9 1002.0 6.6
10/05:00am NW 14 18 - - - - - - - 26.2 1001.6 6.6

Other Formats:

Comma delimited format used in spreadsheet applications
http://www.bom.gov.au/fwo/IDQ60701/IDQ60701.94188.axf

JavaScript Object Notation format (JSON) in row-major order
http://www.bom.gov.au/fwo/IDQ60701/IDQ60701.94188.json